createdAt,value
2023-02-02T00:01:50.600Z,1.30
2023-02-02T00:04:25.988Z,0.90
2023-02-02T00:06:53.917Z,1.60
2023-02-02T00:09:21.106Z,1.38
2023-02-02T00:11:50.383Z,1.57
2023-02-02T00:14:18.063Z,1.20
2023-02-02T00:16:50.224Z,1.40
2023-02-02T00:19:23.081Z,1.50
2023-02-02T00:21:49.675Z,1.15
2023-02-02T00:24:20.720Z,1.40
2023-02-02T00:26:50.397Z,1.42
2023-02-02T00:29:21.152Z,1.77
2023-02-02T00:31:49.533Z,1.58
2023-02-02T00:34:17.074Z,1.30
2023-02-02T00:36:44.635Z,1.43
2023-02-02T00:39:15.294Z,1.80
2023-02-02T00:41:41.845Z,1.30
2023-02-02T00:44:26.719Z,1.67
2023-02-02T00:46:53.106Z,1.40
2023-02-02T00:49:19.698Z,1.70
2023-02-02T00:51:46.219Z,1.55
2023-02-02T00:54:14.200Z,1.58
2023-02-02T00:56:41.490Z,1.20
2023-02-02T00:59:08.939Z,1.30
2023-02-02T01:01:35.891Z,1.33
2023-02-02T01:04:02.510Z,1.02
2023-02-02T01:06:28.947Z,1.70
2023-02-02T01:08:55.478Z,1.60
2023-02-02T01:11:22.108Z,1.50
2023-02-02T01:13:48.485Z,1.30
2023-02-02T01:16:15.859Z,1.73
2023-02-02T01:18:42.522Z,1.30
2023-02-02T01:21:11.736Z,1.55
2023-02-02T01:23:38.758Z,1.65
2023-02-02T01:26:08.205Z,2.00
2023-02-02T01:28:35.319Z,1.92
2023-02-02T01:31:10.557Z,1.30
2023-02-02T01:33:38.022Z,2.30
2023-02-02T01:36:08.666Z,1.80
2023-02-02T01:38:35.267Z,1.40
2023-02-02T01:41:04.387Z,1.98
2023-02-02T01:43:53.059Z,2.47
2023-02-02T01:46:29.188Z,1.58
2023-02-02T01:49:03.982Z,1.58
2023-02-02T01:51:50.585Z,1.43
2023-02-02T01:54:34.626Z,1.20
2023-02-02T01:57:07.008Z,1.88
2023-02-02T01:59:34.877Z,1.80
2023-02-02T02:02:02.427Z,2.20
2023-02-02T02:04:31.565Z,1.60
2023-02-02T02:06:59.567Z,1.55
2023-02-02T02:09:26.106Z,1.48
2023-02-02T02:11:53.482Z,1.73
2023-02-02T02:14:39.666Z,1.50
2023-02-02T02:17:17.100Z,1.30
2023-02-02T02:20:41.031Z,1.52
2023-02-02T02:23:59.714Z,1.98
2023-02-02T02:27:04.058Z,1.77
2023-02-02T02:30:03.148Z,2.10
2023-02-02T02:32:40.968Z,1.37
2023-02-02T02:35:17.585Z,1.40
2023-02-02T02:38:08.771Z,1.75
2023-02-02T02:40:40.499Z,1.63
2023-02-02T02:43:13.838Z,1.58
2023-02-02T02:45:41.232Z,1.20
2023-02-02T02:48:10.580Z,1.27
2023-02-02T02:50:38.078Z,1.73
2023-02-02T02:53:30.882Z,1.50
2023-02-02T02:56:19.798Z,1.80
2023-02-02T02:58:59.710Z,1.63
2023-02-02T03:01:38.299Z,1.90
2023-02-02T03:04:22.560Z,2.72
2023-02-02T03:06:58.195Z,1.35
2023-02-02T03:09:32.668Z,1.25
2023-02-02T03:12:00.030Z,2.03
2023-02-02T03:14:27.119Z,1.80
2023-02-02T03:16:53.732Z,1.70
2023-02-02T03:19:20.298Z,1.75
2023-02-02T03:21:46.606Z,1.65
2023-02-02T03:24:13.111Z,1.80
2023-02-02T03:26:39.707Z,1.70
2023-02-02T03:29:06.680Z,1.60
2023-02-02T03:31:33.129Z,1.75
2023-02-02T03:33:59.630Z,1.92
2023-02-02T03:36:26.478Z,2.33
2023-02-02T03:38:53.049Z,2.25
2023-02-02T03:41:19.597Z,1.80
2023-02-02T03:43:46.189Z,1.95
2023-02-02T03:46:12.634Z,2.80
2023-02-02T03:48:39.650Z,2.80
2023-02-02T03:51:11.793Z,2.47
2023-02-02T03:53:39.709Z,2.00
2023-02-02T03:56:06.928Z,2.47
2023-02-02T03:58:33.347Z,2.67
2023-02-02T04:01:07.552Z,2.37
2023-02-02T04:03:34.539Z,2.67
2023-02-02T04:06:01.276Z,2.80
2023-02-02T04:08:28.622Z,3.08
2023-02-02T04:10:56.443Z,2.53
2023-02-02T04:13:23.409Z,3.00
2023-02-02T04:15:57.624Z,2.30
2023-02-02T04:18:24.407Z,2.22
2023-02-02T04:20:56.501Z,2.53
2023-02-02T04:23:22.939Z,2.90
2023-02-02T04:25:50.790Z,1.58
2023-02-02T04:28:17.423Z,1.70
2023-02-02T04:30:43.986Z,2.05
2023-02-02T04:33:10.587Z,2.10
2023-02-02T04:35:37.165Z,2.45
2023-02-02T04:38:03.685Z,2.33
2023-02-02T04:40:30.321Z,2.17
2023-02-02T04:42:57.955Z,1.98
2023-02-02T04:45:24.927Z,1.95
2023-02-02T04:47:51.688Z,2.70
2023-02-02T04:50:18.365Z,2.90
2023-02-02T04:52:44.818Z,2.25
2023-02-02T04:55:11.399Z,4.43
2023-02-02T04:57:37.968Z,3.53
2023-02-02T05:00:04.975Z,3.58
2023-02-02T05:02:31.607Z,3.22
2023-02-02T05:04:58.135Z,3.20
2023-02-02T05:07:24.719Z,3.13
2023-02-02T05:09:51.271Z,2.80
2023-02-02T05:12:17.846Z,4.40
2023-02-02T05:14:44.405Z,4.83
2023-02-02T05:17:10.895Z,5.80
2023-02-02T05:19:37.427Z,5.68
2023-02-02T05:22:03.858Z,4.55
2023-02-02T05:24:30.448Z,4.53
2023-02-02T05:27:00.437Z,4.17
2023-02-02T05:29:28.454Z,3.88
2023-02-02T05:31:55.666Z,2.65
2023-02-02T05:34:22.804Z,2.42
2023-02-02T05:36:49.488Z,1.88
2023-02-02T05:39:16.053Z,2.17
2023-02-02T05:41:42.445Z,2.70
2023-02-02T05:44:11.998Z,3.08
2023-02-02T05:46:38.512Z,2.40
2023-02-02T05:49:05.355Z,2.47
2023-02-02T05:51:40.799Z,2.70
2023-02-02T05:54:07.186Z,2.03
2023-02-02T05:56:33.671Z,2.30
2023-02-02T05:59:00.368Z,2.13
2023-02-02T06:01:27.117Z,2.40
2023-02-02T06:03:53.880Z,3.00
2023-02-02T06:06:20.445Z,2.42
2023-02-02T06:08:47.447Z,2.55
2023-02-02T06:11:16.825Z,2.40
2023-02-02T06:13:45.821Z,2.05
2023-02-02T06:16:12.809Z,1.40
2023-02-02T06:18:39.524Z,1.27
2023-02-02T06:21:06.937Z,1.60
2023-02-02T06:23:34.333Z,1.33
2023-02-02T06:26:01.638Z,1.42
2023-02-02T06:28:28.177Z,1.40
2023-02-02T06:30:54.773Z,1.50
2023-02-02T06:33:21.207Z,2.97
2023-02-02T06:35:47.612Z,1.50
2023-02-02T06:38:14.180Z,1.27
2023-02-02T06:40:40.757Z,1.53
2023-02-02T06:43:09.128Z,1.40
2023-02-02T06:45:40.338Z,1.40
2023-02-02T06:48:10.787Z,1.50
2023-02-02T06:50:38.348Z,1.45
2023-02-02T06:53:05.236Z,1.23
2023-02-02T06:55:32.093Z,1.45
2023-02-02T06:58:00.418Z,1.10
2023-02-02T07:00:28.859Z,0.95
2023-02-02T07:02:55.945Z,1.13
2023-02-02T07:05:24.502Z,1.17
2023-02-02T07:07:51.643Z,0.88
2023-02-02T07:11:14.055Z,1.00
2023-02-02T07:13:07.080Z,1.60
2023-02-02T07:15:34.747Z,1.58
2023-02-02T07:18:01.728Z,1.30
2023-02-02T07:20:28.352Z,1.45
2023-02-02T07:22:55.154Z,1.30
2023-02-02T07:25:22.184Z,1.33
2023-02-02T07:27:53.247Z,1.17
2023-02-02T07:30:20.848Z,1.43
2023-02-02T07:32:48.805Z,1.40
2023-02-02T07:35:18.721Z,2.00
2023-02-02T07:37:51.875Z,1.95
2023-02-02T07:40:18.502Z,1.05
2023-02-02T07:42:48.003Z,1.60
2023-02-02T07:45:24.644Z,1.23
2023-02-02T07:48:02.936Z,1.70
2023-02-02T07:50:30.837Z,1.50
2023-02-02T07:52:59.062Z,1.45
2023-02-02T07:55:25.497Z,1.40
2023-02-02T07:57:52.925Z,1.40
2023-02-02T08:00:20.053Z,1.05
2023-02-02T08:02:49.524Z,1.30
2023-02-02T08:05:16.377Z,2.15
2023-02-02T08:07:43.503Z,2.10
2023-02-02T08:10:10.809Z,1.42
2023-02-02T08:12:37.348Z,1.42
2023-02-02T08:15:04.188Z,1.83
2023-02-02T08:17:30.715Z,2.75
2023-02-02T08:19:57.247Z,2.30
2023-02-02T08:22:23.714Z,2.33
2023-02-02T08:24:50.359Z,1.83
2023-02-02T08:27:17.048Z,2.20
2023-02-02T08:29:43.898Z,1.90
2023-02-02T08:32:10.544Z,1.80
2023-02-02T08:34:37.265Z,1.60
2023-02-02T08:37:04.425Z,1.52
2023-02-02T08:39:31.007Z,1.80
2023-02-02T08:41:57.947Z,3.15
2023-02-02T08:44:27.622Z,1.90
2023-02-02T08:47:09.641Z,2.42
2023-02-02T08:49:36.278Z,2.72
2023-02-02T08:52:03.090Z,1.50
2023-02-02T08:54:29.668Z,1.52
2023-02-02T08:56:56.660Z,2.00
2023-02-02T08:59:23.308Z,1.60
2023-02-02T09:01:49.714Z,2.05
2023-02-02T09:04:16.235Z,1.45
2023-02-02T09:06:43.254Z,1.35
2023-02-02T09:09:13.919Z,1.50
2023-02-02T09:11:41.326Z,1.58
2023-02-02T09:14:08.318Z,1.60
2023-02-02T09:16:35.811Z,1.70
2023-02-02T09:19:03.067Z,1.35
2023-02-02T09:21:29.480Z,1.60
2023-02-02T09:23:56.119Z,1.38
2023-02-02T09:26:27.804Z,1.27
2023-02-02T09:28:57.539Z,1.30
2023-02-02T09:31:25.747Z,1.35
2023-02-02T09:33:52.318Z,1.30
2023-02-02T09:36:21.666Z,1.52
2023-02-02T09:38:49.325Z,1.23
2023-02-02T09:41:33.782Z,1.13
2023-02-02T09:44:18.640Z,1.27
2023-02-02T09:47:05.005Z,1.30
2023-02-02T09:49:40.852Z,1.15
2023-02-02T09:52:14.555Z,1.27
2023-02-02T09:54:44.890Z,1.20
2023-02-02T09:57:22.497Z,1.58
2023-02-02T09:59:51.247Z,1.20
2023-02-02T10:02:22.507Z,1.27
2023-02-02T10:04:55.617Z,1.50
2023-02-02T10:07:34.949Z,1.20
2023-02-02T10:10:10.784Z,1.30
2023-02-02T10:12:43.781Z,1.73
2023-02-02T10:15:26.506Z,1.50
2023-02-02T10:18:12.065Z,2.00
2023-02-02T10:20:54.215Z,1.90
2023-02-02T10:23:29.249Z,1.40
2023-02-02T10:26:28.122Z,2.22
2023-02-02T10:29:24.975Z,2.10
2023-02-02T10:32:10.228Z,1.60
2023-02-02T10:35:15.123Z,1.60
2023-02-02T10:37:54.261Z,1.70
2023-02-02T10:40:45.717Z,1.75
2023-02-02T10:43:45.910Z,1.92
2023-02-02T10:46:40.773Z,1.08
2023-02-02T10:49:07.137Z,1.93
2023-02-02T10:51:33.941Z,1.50
2023-02-02T10:54:05.360Z,1.80
2023-02-02T10:56:39.651Z,1.77
2023-02-02T10:59:12.809Z,1.70
2023-02-02T11:01:39.403Z,1.87
2023-02-02T11:04:24.970Z,1.70
2023-02-02T11:06:51.914Z,1.10
2023-02-02T11:09:26.468Z,1.30
2023-02-02T11:12:25.582Z,1.08
2023-02-02T11:15:27.072Z,1.00
2023-02-02T11:17:54.332Z,1.42
2023-02-02T11:20:32.945Z,1.60
2023-02-02T11:23:02.330Z,1.60
2023-02-02T11:25:35.227Z,2.03
2023-02-02T11:28:20.274Z,1.27
2023-02-02T11:30:52.546Z,1.30
2023-02-02T11:33:30.851Z,1.50
2023-02-02T11:36:04.058Z,1.40
2023-02-02T11:38:30.869Z,1.10
2023-02-02T11:41:02.494Z,1.33
2023-02-02T11:43:41.375Z,1.58
2023-02-02T11:46:18.664Z,1.40
2023-02-02T11:49:08.492Z,1.80
2023-02-02T11:51:35.324Z,1.45
2023-02-02T11:54:07.674Z,1.73
2023-02-02T11:56:37.187Z,1.90
2023-02-02T11:59:04.378Z,2.20
2023-02-02T12:01:34.118Z,1.88
2023-02-02T12:04:03.069Z,2.22
2023-02-02T12:06:32.581Z,2.40
2023-02-02T12:09:01.686Z,2.20
2023-02-02T12:11:43.873Z,2.85
2023-02-02T12:14:19.300Z,2.30
2023-02-02T12:17:04.540Z,3.03
2023-02-02T12:19:56.255Z,2.57
2023-02-02T12:22:49.102Z,2.22
2023-02-02T12:25:35.592Z,2.00
2023-02-02T12:28:12.596Z,1.95
2023-02-02T12:30:52.625Z,2.58
2023-02-02T12:33:44.236Z,2.10
2023-02-02T12:36:20.816Z,2.25
2023-02-02T12:38:58.058Z,2.10
2023-02-02T12:41:46.925Z,2.50
2023-02-02T12:44:44.908Z,2.25
2023-02-02T12:47:20.998Z,2.00
2023-02-02T12:50:14.270Z,2.20
2023-02-02T12:52:57.673Z,3.88
2023-02-02T12:56:05.587Z,3.30
2023-02-02T12:58:58.873Z,2.47
2023-02-02T13:02:04.205Z,1.93
2023-02-02T13:04:53.238Z,1.70
2023-02-02T13:07:24.700Z,1.67
2023-02-02T13:10:03.269Z,3.05
2023-02-02T13:12:36.100Z,2.00
2023-02-02T13:15:07.769Z,1.53
2023-02-02T13:17:39.371Z,1.42
2023-02-02T13:20:25.031Z,2.08
2023-02-02T13:22:56.899Z,1.60
2023-02-02T13:25:30.077Z,1.45
2023-02-02T13:27:59.891Z,1.43
2023-02-02T13:30:34.310Z,1.33
2023-02-02T13:33:16.278Z,2.30
2023-02-02T13:35:54.235Z,2.10
2023-02-02T13:38:26.134Z,1.40
2023-02-02T13:40:59.412Z,1.03
2023-02-02T13:43:57.146Z,1.38
2023-02-02T13:46:36.271Z,0.98
2023-02-02T13:49:30.929Z,0.98
2023-02-02T13:52:16.123Z,1.27
2023-02-02T13:55:04.545Z,0.60
2023-02-02T13:57:57.578Z,0.95
2023-02-02T14:00:30.445Z,1.05
2023-02-02T14:03:00.114Z,0.80
2023-02-02T14:05:31.254Z,0.90
2023-02-02T14:08:04.215Z,0.70
2023-02-02T14:10:42.377Z,0.80
2023-02-02T14:13:56.733Z,1.27
2023-02-02T14:16:32.178Z,1.20
2023-02-02T14:19:00.788Z,1.50
2023-02-02T14:22:06.316Z,1.97
2023-02-02T14:24:36.000Z,1.67
2023-02-02T14:27:31.644Z,2.13
2023-02-02T14:30:00.163Z,1.80
2023-02-02T14:32:30.753Z,1.90
2023-02-02T14:35:06.121Z,2.30
2023-02-02T14:37:48.166Z,2.10
2023-02-02T14:40:47.076Z,2.65
2023-02-02T14:43:44.363Z,1.83
2023-02-02T14:46:14.185Z,2.17
2023-02-02T14:48:47.961Z,2.17
2023-02-02T14:51:28.253Z,1.63
2023-02-02T14:53:59.280Z,3.70
2023-02-02T14:56:45.651Z,2.30
2023-02-02T14:59:26.839Z,1.60
2023-02-02T15:02:01.365Z,1.53
2023-02-02T15:04:29.424Z,1.55
2023-02-02T15:06:56.708Z,2.20
2023-02-02T15:09:23.519Z,2.40
2023-02-02T15:12:01.231Z,2.35
2023-02-02T15:14:32.007Z,2.50
2023-02-02T15:17:04.557Z,2.00
2023-02-02T15:19:37.854Z,1.70
2023-02-02T15:22:26.960Z,1.52
2023-02-02T15:24:54.577Z,1.70
2023-02-02T15:27:25.188Z,1.90
2023-02-02T15:29:58.691Z,2.40
2023-02-02T15:32:28.485Z,1.50
2023-02-02T15:35:01.709Z,1.70
2023-02-02T15:37:40.459Z,2.00
2023-02-02T15:40:16.151Z,2.40
2023-02-02T15:42:53.449Z,1.85
2023-02-02T15:45:37.928Z,2.28
2023-02-02T15:48:18.645Z,2.35
2023-02-02T15:50:51.248Z,2.30
2023-02-02T15:53:21.044Z,2.13
2023-02-02T15:55:47.691Z,2.22
2023-02-02T15:58:24.393Z,2.35
2023-02-02T16:01:19.168Z,3.28
2023-02-02T16:03:56.363Z,2.20
2023-02-02T16:06:22.969Z,3.00
2023-02-02T16:08:49.552Z,2.13
2023-02-02T16:11:19.952Z,2.75
2023-02-02T16:14:01.913Z,2.85
2023-02-02T16:16:36.462Z,3.85
2023-02-02T16:19:09.329Z,3.33
2023-02-02T16:21:41.689Z,3.08
2023-02-02T16:24:15.834Z,3.03
2023-02-02T16:26:42.400Z,3.08
2023-02-02T16:29:17.439Z,2.90
2023-02-02T16:31:49.779Z,3.10
2023-02-02T16:34:18.471Z,3.10
2023-02-02T16:37:03.707Z,3.53
2023-02-02T16:39:30.110Z,3.88
2023-02-02T16:42:10.757Z,3.90
2023-02-02T16:44:45.233Z,4.70
2023-02-02T16:47:26.896Z,4.90
2023-02-02T16:50:14.854Z,5.88
2023-02-02T16:52:57.418Z,6.25
2023-02-02T16:55:31.529Z,5.30
2023-02-02T16:58:06.302Z,5.43
2023-02-02T17:00:33.520Z,5.32
2023-02-02T17:03:05.556Z,5.93
2023-02-02T17:05:37.182Z,5.90
2023-02-02T17:08:07.359Z,4.60
2023-02-02T17:10:39.181Z,6.70
2023-02-02T17:13:30.671Z,5.80
2023-02-02T17:15:58.305Z,5.32
2023-02-02T17:18:25.222Z,4.28
2023-02-02T17:20:58.305Z,4.72
2023-02-02T17:23:28.540Z,5.33
2023-02-02T17:25:55.490Z,4.82
2023-02-02T17:28:24.381Z,6.05
2023-02-02T17:31:07.325Z,5.55
2023-02-02T17:33:35.389Z,5.40
2023-02-02T17:36:02.588Z,5.00
2023-02-02T17:38:29.335Z,3.13
2023-02-02T17:41:01.128Z,3.90
2023-02-02T17:43:28.910Z,2.65
2023-02-02T17:45:55.822Z,2.70
2023-02-02T17:48:22.414Z,2.97
2023-02-02T17:50:49.310Z,2.40
2023-02-02T17:53:19.216Z,3.88
2023-02-02T17:55:47.154Z,3.30
2023-02-02T17:58:17.195Z,2.58
2023-02-02T18:00:52.029Z,2.63
2023-02-02T18:03:31.914Z,2.80
2023-02-02T18:06:02.853Z,2.72
2023-02-02T18:08:31.453Z,3.75
2023-02-02T18:10:59.350Z,3.33
2023-02-02T18:13:26.328Z,3.30
2023-02-02T18:15:53.922Z,3.58
2023-02-02T18:18:20.498Z,4.00
2023-02-02T18:20:49.458Z,3.42
2023-02-02T18:23:17.131Z,3.05
2023-02-02T18:25:44.545Z,3.27
2023-02-02T18:28:11.458Z,4.18
2023-02-02T18:30:39.047Z,3.80
2023-02-02T18:33:08.131Z,3.80
2023-02-02T18:35:35.171Z,3.05
2023-02-02T18:38:01.559Z,4.17
2023-02-02T18:40:27.985Z,3.85
2023-02-02T18:42:54.528Z,3.00
2023-02-02T18:45:20.876Z,3.13
2023-02-02T18:47:47.371Z,3.20
2023-02-02T18:50:14.224Z,3.10
2023-02-02T18:52:40.828Z,2.75
2023-02-02T18:55:07.684Z,3.22
2023-02-02T18:57:34.254Z,3.15
2023-02-02T19:00:00.627Z,2.80
2023-02-02T19:02:27.188Z,2.90
2023-02-02T19:05:12.528Z,2.83
2023-02-02T19:07:58.157Z,1.98
2023-02-02T19:10:27.333Z,1.73
2023-02-02T19:13:06.680Z,2.80
2023-02-02T19:15:37.177Z,2.60
2023-02-02T19:18:15.251Z,2.35
2023-02-02T19:20:42.780Z,2.70
2023-02-02T19:23:23.475Z,3.55
2023-02-02T19:25:55.506Z,5.10
2023-02-02T19:28:23.889Z,6.60
2023-02-02T19:30:56.014Z,7.20
2023-02-02T19:33:34.212Z,8.20
2023-02-02T19:36:00.757Z,9.75
2023-02-02T19:38:29.700Z,7.88
2023-02-02T19:40:56.269Z,5.40
2023-02-02T19:43:28.614Z,3.60
2023-02-02T19:45:59.351Z,3.90
2023-02-02T19:48:31.119Z,3.97
2023-02-02T19:50:58.099Z,3.90
2023-02-02T19:53:30.339Z,4.83
2023-02-02T19:55:56.893Z,3.20
2023-02-02T19:58:28.627Z,3.78
2023-02-02T20:00:56.233Z,3.03
2023-02-02T20:03:26.015Z,3.08
2023-02-02T20:05:55.928Z,2.60
2023-02-02T20:08:25.439Z,2.75
2023-02-02T20:10:54.375Z,2.40
2023-02-02T20:13:23.582Z,2.75
2023-02-02T20:15:54.692Z,2.30
2023-02-02T20:18:42.601Z,2.67
2023-02-02T20:21:20.036Z,2.90
2023-02-02T20:23:46.981Z,2.85
2023-02-02T20:26:24.256Z,3.00
2023-02-02T20:28:52.776Z,3.10
2023-02-02T20:31:23.742Z,2.97
2023-02-02T20:33:57.505Z,2.70
2023-02-02T20:36:40.062Z,2.53
2023-02-02T20:39:25.380Z,2.85
2023-02-02T20:41:54.308Z,2.53
2023-02-02T20:44:21.526Z,2.83
2023-02-02T20:46:47.952Z,2.97
2023-02-02T20:49:14.574Z,3.08
2023-02-02T20:51:41.399Z,3.38
2023-02-02T20:54:10.027Z,3.03
2023-02-02T20:56:37.056Z,3.63
2023-02-02T20:59:06.989Z,3.80
2023-02-02T21:01:33.871Z,3.67
2023-02-02T21:04:00.297Z,3.08
2023-02-02T21:06:28.625Z,3.22
2023-02-02T21:08:55.310Z,2.97
2023-02-02T21:11:21.910Z,3.15
2023-02-02T21:13:50.211Z,3.40
2023-02-02T21:16:17.187Z,2.75
2023-02-02T21:18:47.278Z,3.30
2023-02-02T21:21:15.752Z,3.03
2023-02-02T21:23:50.835Z,3.05
2023-02-02T21:26:23.650Z,2.60
2023-02-02T21:28:50.051Z,2.53
2023-02-02T21:31:17.958Z,2.33
2023-02-02T21:33:46.090Z,2.10
2023-02-02T21:36:33.311Z,2.22
2023-02-02T21:39:27.268Z,2.40
2023-02-02T21:42:09.229Z,2.13
2023-02-02T21:44:38.564Z,2.10
2023-02-02T21:47:19.545Z,2.10
2023-02-02T21:49:45.967Z,3.50
2023-02-02T21:52:15.898Z,3.00
2023-02-02T21:54:42.974Z,2.67
2023-02-02T21:57:16.885Z,3.80
2023-02-02T21:59:45.689Z,3.10
2023-02-02T22:02:39.152Z,3.40
2023-02-02T22:05:27.957Z,3.00
2023-02-02T22:07:58.867Z,2.97
2023-02-02T22:10:42.962Z,3.20
2023-02-02T22:13:22.927Z,2.67
2023-02-02T22:15:51.649Z,2.83
2023-02-02T22:18:21.996Z,2.65
2023-02-02T22:20:50.854Z,2.47
2023-02-02T22:23:26.464Z,2.58
2023-02-02T22:25:55.716Z,2.70
2023-02-02T22:28:27.358Z,2.17
2023-02-02T22:30:55.613Z,2.30
2023-02-02T22:33:23.412Z,2.47
2023-02-02T22:35:49.850Z,1.90
2023-02-02T22:38:19.051Z,2.20
2023-02-02T22:40:46.695Z,2.10
2023-02-02T22:43:16.252Z,2.17
2023-02-02T22:45:43.769Z,2.25
2023-02-02T22:48:10.944Z,1.90
2023-02-02T22:50:37.503Z,1.90
2023-02-02T22:53:04.943Z,1.88
2023-02-02T22:55:32.199Z,1.83
2023-02-02T22:57:58.846Z,1.75
2023-02-02T23:00:30.135Z,2.03
2023-02-02T23:02:56.940Z,1.87
2023-02-02T23:05:25.177Z,1.90
2023-02-02T23:07:51.976Z,1.73
2023-02-02T23:10:20.908Z,1.65
2023-02-02T23:12:47.927Z,1.98
2023-02-02T23:15:15.255Z,1.40
2023-02-02T23:17:42.234Z,1.70
2023-02-02T23:20:11.763Z,1.77
2023-02-02T23:22:38.303Z,1.40
2023-02-02T23:25:05.443Z,1.55
2023-02-02T23:27:32.285Z,1.57
2023-02-02T23:29:58.775Z,1.23
2023-02-02T23:32:25.313Z,1.75
2023-02-02T23:34:51.673Z,1.42
2023-02-02T23:37:18.015Z,1.50
2023-02-02T23:39:45.587Z,1.30
2023-02-02T23:42:12.091Z,1.20
2023-02-02T23:44:38.642Z,1.30
2023-02-02T23:47:05.384Z,1.10
2023-02-02T23:49:32.967Z,1.20
2023-02-02T23:52:00.133Z,1.63
2023-02-02T23:54:27.522Z,1.40
2023-02-02T23:56:54.127Z,1.67
2023-02-02T23:59:20.611Z,1.60
